sensor_id;sensor_type;location;lat;lon;timestamp;temperature;humidity
24049;DHT22;12250;50.956;4.746;2022-12-24T00:02:19;11.90;99.90
24049;DHT22;12250;50.956;4.746;2022-12-24T00:04:44;11.90;99.90
24049;DHT22;12250;50.956;4.746;2022-12-24T00:07:10;11.80;99.90
24049;DHT22;12250;50.956;4.746;2022-12-24T00:09:36;11.70;99.90
24049;DHT22;12250;50.956;4.746;2022-12-24T00:12:02;11.60;99.90
24049;DHT22;12250;50.956;4.746;2022-12-24T00:14:27;11.60;99.90
24049;DHT22;12250;50.956;4.746;2022-12-24T00:16:53;11.60;99.90
24049;DHT22;12250;50.956;4.746;2022-12-24T00:19:19;11.50;99.90
24049;DHT22;12250;50.956;4.746;2022-12-24T00:21:44;11.50;99.90
24049;DHT22;12250;50.956;4.746;2022-12-24T00:24:10;11.50;99.90
24049;DHT22;12250;50.956;4.746;2022-12-24T00:26:35;11.50;99.90
24049;DHT22;12250;50.956;4.746;2022-12-24T00:29:01;11.40;99.90
24049;DHT22;12250;50.956;4.746;2022-12-24T00:31:27;11.50;99.90
24049;DHT22;12250;50.956;4.746;2022-12-24T00:33:53;11.50;99.90
24049;DHT22;12250;50.956;4.746;2022-12-24T00:36:19;11.40;99.90
24049;DHT22;12250;50.956;4.746;2022-12-24T00:38:45;11.50;99.90
24049;DHT22;12250;50.956;4.746;2022-12-24T00:41:12;11.40;99.90
24049;DHT22;12250;50.956;4.746;2022-12-24T00:44:01;11.40;99.90
24049;DHT22;12250;50.956;4.746;2022-12-24T00:46:29;11.30;99.90
24049;DHT22;12250;50.956;4.746;2022-12-24T00:48:56;11.30;99.90
24049;DHT22;12250;50.956;4.746;2022-12-24T00:51:22;11.30;99.90
24049;DHT22;12250;50.956;4.746;2022-12-24T00:53:48;11.40;99.90
24049;DHT22;12250;50.956;4.746;2022-12-24T00:56:14;11.40;99.90
24049;DHT22;12250;50.956;4.746;2022-12-24T00:58:40;11.60;99.90
24049;DHT22;12250;50.956;4.746;2022-12-24T01:01:06;11.70;99.90
24049;DHT22;12250;50.956;4.746;2022-12-24T01:03:32;11.70;99.90
24049;DHT22;12250;50.956;4.746;2022-12-24T01:06:05;11.80;99.90
24049;DHT22;12250;50.956;4.746;2022-12-24T01:08:32;11.80;99.90
24049;DHT22;12250;50.956;4.746;2022-12-24T01:10:57;11.80;99.90
24049;DHT22;12250;50.956;4.746;2022-12-24T01:13:23;11.90;99.90
24049;DHT22;12250;50.956;4.746;2022-12-24T01:15:49;11.80;99.90
24049;DHT22;12250;50.956;4.746;2022-12-24T01:18:15;11.80;99.90
24049;DHT22;12250;50.956;4.746;2022-12-24T01:20:41;11.90;99.90
24049;DHT22;12250;50.956;4.746;2022-12-24T01:23:07;11.80;99.90
24049;DHT22;12250;50.956;4.746;2022-12-24T01:25:32;11.80;99.90
24049;DHT22;12250;50.956;4.746;2022-12-24T01:27:58;11.90;99.90
24049;DHT22;12250;50.956;4.746;2022-12-24T01:30:24;11.80;99.90
24049;DHT22;12250;50.956;4.746;2022-12-24T01:32:50;11.80;99.90
24049;DHT22;12250;50.956;4.746;2022-12-24T01:35:15;11.80;99.90
24049;DHT22;12250;50.956;4.746;2022-12-24T01:37:42;11.70;99.90
24049;DHT22;12250;50.956;4.746;2022-12-24T01:40:12;11.60;99.90
24049;DHT22;12250;50.956;4.746;2022-12-24T01:42:57;11.60;99.90
24049;DHT22;12250;50.956;4.746;2022-12-24T01:45:50;11.60;99.90
24049;DHT22;12250;50.956;4.746;2022-12-24T01:48:25;11.50;99.90
24049;DHT22;12250;50.956;4.746;2022-12-24T01:50:57;11.50;99.90
24049;DHT22;12250;50.956;4.746;2022-12-24T01:53:23;11.40;99.90
24049;DHT22;12250;50.956;4.746;2022-12-24T01:55:49;11.40;99.90
24049;DHT22;12250;50.956;4.746;2022-12-24T01:58:16;11.30;99.90
24049;DHT22;12250;50.956;4.746;2022-12-24T02:00:43;11.30;99.90
24049;DHT22;12250;50.956;4.746;2022-12-24T02:03:09;11.30;99.90
24049;DHT22;12250;50.956;4.746;2022-12-24T02:05:47;11.30;99.90
24049;DHT22;12250;50.956;4.746;2022-12-24T02:08:13;11.30;99.90
24049;DHT22;12250;50.956;4.746;2022-12-24T02:10:39;11.20;99.90
24049;DHT22;12250;50.956;4.746;2022-12-24T02:13:05;11.20;99.90
24049;DHT22;12250;50.956;4.746;2022-12-24T02:18:37;11.20;99.90
24049;DHT22;12250;50.956;4.746;2022-12-24T02:21:34;11.20;99.90
24049;DHT22;12250;50.956;4.746;2022-12-24T02:32:34;11.10;99.90
24049;DHT22;12250;50.956;4.746;2022-12-24T02:37:54;11.00;99.90
24049;DHT22;12250;50.956;4.746;2022-12-24T02:40:28;11.00;99.90
24049;DHT22;12250;50.956;4.746;2022-12-24T02:43:00;11.00;99.90
24049;DHT22;12250;50.956;4.746;2022-12-24T02:45:31;11.00;99.90
24049;DHT22;12250;50.956;4.746;2022-12-24T02:47:57;10.90;99.90
24049;DHT22;12250;50.956;4.746;2022-12-24T02:50:24;10.90;99.90
24049;DHT22;12250;50.956;4.746;2022-12-24T02:52:51;10.90;99.90
24049;DHT22;12250;50.956;4.746;2022-12-24T02:55:18;10.90;99.90
24049;DHT22;12250;50.956;4.746;2022-12-24T03:09:27;10.90;99.90
24049;DHT22;12250;50.956;4.746;2022-12-24T03:11:57;10.90;99.90
24049;DHT22;12250;50.956;4.746;2022-12-24T03:14:25;10.90;99.90
24049;DHT22;12250;50.956;4.746;2022-12-24T03:16:51;10.90;99.90
24049;DHT22;12250;50.956;4.746;2022-12-24T03:19:19;11.00;99.90
24049;DHT22;12250;50.956;4.746;2022-12-24T03:21:46;11.00;99.90
24049;DHT22;12250;50.956;4.746;2022-12-24T03:24:12;11.00;99.90
24049;DHT22;12250;50.956;4.746;2022-12-24T03:26:38;11.00;99.90
24049;DHT22;12250;50.956;4.746;2022-12-24T03:29:06;11.10;99.90
24049;DHT22;12250;50.956;4.746;2022-12-24T03:31:43;11.20;99.90
24049;DHT22;12250;50.956;4.746;2022-12-24T03:34:10;11.10;99.90
24049;DHT22;12250;50.956;4.746;2022-12-24T03:36:36;11.20;99.90
24049;DHT22;12250;50.956;4.746;2022-12-24T03:39:02;11.20;99.90
24049;DHT22;12250;50.956;4.746;2022-12-24T03:41:28;11.20;99.90
24049;DHT22;12250;50.956;4.746;2022-12-24T03:43:53;11.20;99.90
24049;DHT22;12250;50.956;4.746;2022-12-24T03:46:19;11.20;99.90
24049;DHT22;12250;50.956;4.746;2022-12-24T03:48:44;11.20;99.90
24049;DHT22;12250;50.956;4.746;2022-12-24T03:51:22;11.30;99.90
24049;DHT22;12250;50.956;4.746;2022-12-24T03:53:48;11.30;99.90
24049;DHT22;12250;50.956;4.746;2022-12-24T03:56:14;11.30;99.90
24049;DHT22;12250;50.956;4.746;2022-12-24T03:58:40;11.20;99.90
24049;DHT22;12250;50.956;4.746;2022-12-24T04:01:06;11.20;99.90
24049;DHT22;12250;50.956;4.746;2022-12-24T04:03:31;11.20;99.90
24049;DHT22;12250;50.956;4.746;2022-12-24T04:06:05;11.10;99.90
24049;DHT22;12250;50.956;4.746;2022-12-24T04:08:31;11.00;99.90
24049;DHT22;12250;50.956;4.746;2022-12-24T04:10:57;10.90;99.90
24049;DHT22;12250;50.956;4.746;2022-12-24T04:13:23;10.90;99.90
24049;DHT22;12250;50.956;4.746;2022-12-24T04:16:06;10.90;99.90
24049;DHT22;12250;50.956;4.746;2022-12-24T04:18:33;10.90;99.90
24049;DHT22;12250;50.956;4.746;2022-12-24T04:20:59;10.90;99.90
24049;DHT22;12250;50.956;4.746;2022-12-24T04:23:25;11.00;99.90
24049;DHT22;12250;50.956;4.746;2022-12-24T04:25:50;11.00;99.90
24049;DHT22;12250;50.956;4.746;2022-12-24T04:28:17;11.00;99.90
24049;DHT22;12250;50.956;4.746;2022-12-24T04:30:43;11.00;99.90
24049;DHT22;12250;50.956;4.746;2022-12-24T04:33:09;11.00;99.90
24049;DHT22;12250;50.956;4.746;2022-12-24T04:35:41;10.90;99.90
24049;DHT22;12250;50.956;4.746;2022-12-24T04:38:08;10.70;99.90
24049;DHT22;12250;50.956;4.746;2022-12-24T04:40:34;10.70;99.90
24049;DHT22;12250;50.956;4.746;2022-12-24T04:43:00;10.80;99.90
24049;DHT22;12250;50.956;4.746;2022-12-24T04:45:26;10.80;99.90
24049;DHT22;12250;50.956;4.746;2022-12-24T04:47:51;10.80;99.90
24049;DHT22;12250;50.956;4.746;2022-12-24T04:50:17;10.80;99.90
24049;DHT22;12250;50.956;4.746;2022-12-24T04:52:42;10.70;99.90
24049;DHT22;12250;50.956;4.746;2022-12-24T04:55:08;10.80;99.90
24049;DHT22;12250;50.956;4.746;2022-12-24T04:57:34;10.80;99.90
24049;DHT22;12250;50.956;4.746;2022-12-24T05:00:03;10.80;99.90
24049;DHT22;12250;50.956;4.746;2022-12-24T05:02:29;10.80;99.90
24049;DHT22;12250;50.956;4.746;2022-12-24T05:04:55;10.90;99.90
24049;DHT22;12250;50.956;4.746;2022-12-24T05:07:20;10.80;99.90
24049;DHT22;12250;50.956;4.746;2022-12-24T05:09:47;10.90;99.90
24049;DHT22;12250;50.956;4.746;2022-12-24T05:12:12;10.90;99.90
24049;DHT22;12250;50.956;4.746;2022-12-24T05:14:39;11.00;99.90
24049;DHT22;12250;50.956;4.746;2022-12-24T05:17:05;11.00;99.90
24049;DHT22;12250;50.956;4.746;2022-12-24T05:19:30;11.00;99.90
24049;DHT22;12250;50.956;4.746;2022-12-24T05:21:56;11.10;99.90
24049;DHT22;12250;50.956;4.746;2022-12-24T05:24:42;11.00;99.90
24049;DHT22;12250;50.956;4.746;2022-12-24T05:27:27;11.00;99.90
24049;DHT22;12250;50.956;4.746;2022-12-24T05:29:52;11.10;99.90
24049;DHT22;12250;50.956;4.746;2022-12-24T05:32:18;11.20;99.90
24049;DHT22;12250;50.956;4.746;2022-12-24T05:34:44;11.20;99.90
24049;DHT22;12250;50.956;4.746;2022-12-24T05:37:09;11.20;99.90
24049;DHT22;12250;50.956;4.746;2022-12-24T05:39:35;11.20;99.90
24049;DHT22;12250;50.956;4.746;2022-12-24T05:42:01;11.20;99.90
24049;DHT22;12250;50.956;4.746;2022-12-24T05:44:26;11.20;99.90
24049;DHT22;12250;50.956;4.746;2022-12-24T05:46:52;11.20;99.90
24049;DHT22;12250;50.956;4.746;2022-12-24T05:49:17;11.20;99.90
24049;DHT22;12250;50.956;4.746;2022-12-24T05:51:43;11.10;99.90
24049;DHT22;12250;50.956;4.746;2022-12-24T05:54:10;11.00;99.90
24049;DHT22;12250;50.956;4.746;2022-12-24T05:56:36;10.90;99.90
24049;DHT22;12250;50.956;4.746;2022-12-24T05:59:02;10.80;99.90
24049;DHT22;12250;50.956;4.746;2022-12-24T06:01:27;10.80;99.90
24049;DHT22;12250;50.956;4.746;2022-12-24T06:03:54;10.80;99.90
24049;DHT22;12250;50.956;4.746;2022-12-24T06:06:25;10.80;99.90
24049;DHT22;12250;50.956;4.746;2022-12-24T06:08:53;10.80;99.90
24049;DHT22;12250;50.956;4.746;2022-12-24T06:11:23;10.90;99.90
24049;DHT22;12250;50.956;4.746;2022-12-24T06:13:49;10.90;99.90
24049;DHT22;12250;50.956;4.746;2022-12-24T06:16:16;11.00;99.90
24049;DHT22;12250;50.956;4.746;2022-12-24T06:18:42;11.00;99.90
24049;DHT22;12250;50.956;4.746;2022-12-24T06:21:08;11.10;99.90
24049;DHT22;12250;50.956;4.746;2022-12-24T06:23:36;11.10;99.90
24049;DHT22;12250;50.956;4.746;2022-12-24T06:26:04;11.10;99.90
24049;DHT22;12250;50.956;4.746;2022-12-24T06:28:35;11.10;99.90
24049;DHT22;12250;50.956;4.746;2022-12-24T06:31:02;11.10;99.90
24049;DHT22;12250;50.956;4.746;2022-12-24T06:33:29;11.00;99.90
24049;DHT22;12250;50.956;4.746;2022-12-24T06:35:55;10.90;99.90
24049;DHT22;12250;50.956;4.746;2022-12-24T06:38:21;10.90;99.90
24049;DHT22;12250;50.956;4.746;2022-12-24T06:40:46;10.80;99.90
24049;DHT22;12250;50.956;4.746;2022-12-24T06:43:13;10.80;99.90
24049;DHT22;12250;50.956;4.746;2022-12-24T06:45:42;10.80;99.90
24049;DHT22;12250;50.956;4.746;2022-12-24T06:48:08;10.80;99.90
24049;DHT22;12250;50.956;4.746;2022-12-24T06:50:34;10.70;99.90
24049;DHT22;12250;50.956;4.746;2022-12-24T06:52:59;10.70;99.90
24049;DHT22;12250;50.956;4.746;2022-12-24T06:55:25;10.50;99.90
24049;DHT22;12250;50.956;4.746;2022-12-24T06:57:51;10.60;99.90
24049;DHT22;12250;50.956;4.746;2022-12-24T07:00:17;10.60;99.90
24049;DHT22;12250;50.956;4.746;2022-12-24T07:02:44;10.50;99.90
24049;DHT22;12250;50.956;4.746;2022-12-24T07:05:11;10.50;99.90
24049;DHT22;12250;50.956;4.746;2022-12-24T07:07:38;10.50;99.90
24049;DHT22;12250;50.956;4.746;2022-12-24T07:10:05;10.40;99.90
24049;DHT22;12250;50.956;4.746;2022-12-24T07:12:31;10.40;99.90
24049;DHT22;12250;50.956;4.746;2022-12-24T07:14:56;10.40;99.90
24049;DHT22;12250;50.956;4.746;2022-12-24T07:17:22;10.40;99.90
24049;DHT22;12250;50.956;4.746;2022-12-24T07:19:48;10.40;99.90
24049;DHT22;12250;50.956;4.746;2022-12-24T07:22:13;10.40;99.90
24049;DHT22;12250;50.956;4.746;2022-12-24T07:24:39;10.50;99.90
24049;DHT22;12250;50.956;4.746;2022-12-24T07:27:05;10.50;99.90
24049;DHT22;12250;50.956;4.746;2022-12-24T07:29:30;10.60;99.90
24049;DHT22;12250;50.956;4.746;2022-12-24T07:31:56;10.60;99.90
24049;DHT22;12250;50.956;4.746;2022-12-24T07:34:22;10.70;99.90
24049;DHT22;12250;50.956;4.746;2022-12-24T07:36:47;10.60;99.90
24049;DHT22;12250;50.956;4.746;2022-12-24T07:39:13;10.60;99.90
24049;DHT22;12250;50.956;4.746;2022-12-24T07:41:39;10.50;99.90
24049;DHT22;12250;50.956;4.746;2022-12-24T07:44:04;10.50;99.90
24049;DHT22;12250;50.956;4.746;2022-12-24T07:46:30;10.50;99.90
24049;DHT22;12250;50.956;4.746;2022-12-24T07:48:58;10.50;99.90
24049;DHT22;12250;50.956;4.746;2022-12-24T07:51:24;10.40;99.90
24049;DHT22;12250;50.956;4.746;2022-12-24T07:53:49;10.40;99.90
24049;DHT22;12250;50.956;4.746;2022-12-24T07:56:16;10.50;99.90
24049;DHT22;12250;50.956;4.746;2022-12-24T07:58:42;10.50;99.90
24049;DHT22;12250;50.956;4.746;2022-12-24T08:01:08;10.60;99.90
24049;DHT22;12250;50.956;4.746;2022-12-24T08:03:33;10.70;99.90
24049;DHT22;12250;50.956;4.746;2022-12-24T08:05:59;10.80;99.90
24049;DHT22;12250;50.956;4.746;2022-12-24T08:08:25;10.80;99.90
24049;DHT22;12250;50.956;4.746;2022-12-24T08:10:51;10.80;99.90
24049;DHT22;12250;50.956;4.746;2022-12-24T08:13:17;10.80;99.90
24049;DHT22;12250;50.956;4.746;2022-12-24T08:15:43;10.80;99.90
24049;DHT22;12250;50.956;4.746;2022-12-24T08:18:10;10.70;99.90
24049;DHT22;12250;50.956;4.746;2022-12-24T08:20:39;10.80;99.90
24049;DHT22;12250;50.956;4.746;2022-12-24T08:23:06;10.80;99.90
24049;DHT22;12250;50.956;4.746;2022-12-24T08:25:32;10.80;99.90
24049;DHT22;12250;50.956;4.746;2022-12-24T08:27:58;10.80;99.90
24049;DHT22;12250;50.956;4.746;2022-12-24T08:30:23;10.90;99.90
24049;DHT22;12250;50.956;4.746;2022-12-24T08:32:49;10.90;99.90
24049;DHT22;12250;50.956;4.746;2022-12-24T08:35:14;10.80;99.90
24049;DHT22;12250;50.956;4.746;2022-12-24T08:37:40;10.80;99.90
24049;DHT22;12250;50.956;4.746;2022-12-24T08:40:06;10.90;99.90
24049;DHT22;12250;50.956;4.746;2022-12-24T08:42:32;10.90;99.90
24049;DHT22;12250;50.956;4.746;2022-12-24T08:44:58;11.00;99.90
24049;DHT22;12250;50.956;4.746;2022-12-24T08:47:24;11.10;99.90
24049;DHT22;12250;50.956;4.746;2022-12-24T08:49:49;11.10;99.90
24049;DHT22;12250;50.956;4.746;2022-12-24T08:52:15;11.10;99.90
24049;DHT22;12250;50.956;4.746;2022-12-24T08:54:40;11.10;99.90
24049;DHT22;12250;50.956;4.746;2022-12-24T08:57:06;11.20;99.90
24049;DHT22;12250;50.956;4.746;2022-12-24T08:59:32;11.20;99.90
24049;DHT22;12250;50.956;4.746;2022-12-24T09:01:57;11.20;99.90
24049;DHT22;12250;50.956;4.746;2022-12-24T09:04:23;11.20;99.90
24049;DHT22;12250;50.956;4.746;2022-12-24T09:06:48;11.20;99.90
24049;DHT22;12250;50.956;4.746;2022-12-24T09:09:14;11.20;99.90
24049;DHT22;12250;50.956;4.746;2022-12-24T09:11:40;11.20;99.90
24049;DHT22;12250;50.956;4.746;2022-12-24T09:14:05;11.30;99.90
24049;DHT22;12250;50.956;4.746;2022-12-24T09:16:31;11.30;99.90
24049;DHT22;12250;50.956;4.746;2022-12-24T09:18:57;11.40;99.90
24049;DHT22;12250;50.956;4.746;2022-12-24T09:21:23;11.40;99.90
24049;DHT22;12250;50.956;4.746;2022-12-24T09:23:48;11.50;99.90
24049;DHT22;12250;50.956;4.746;2022-12-24T09:26:21;11.60;99.90
24049;DHT22;12250;50.956;4.746;2022-12-24T09:28:47;11.70;99.90
24049;DHT22;12250;50.956;4.746;2022-12-24T09:31:13;11.70;99.90
24049;DHT22;12250;50.956;4.746;2022-12-24T09:33:40;11.70;99.90
24049;DHT22;12250;50.956;4.746;2022-12-24T09:36:06;11.80;99.90
24049;DHT22;12250;50.956;4.746;2022-12-24T09:38:33;11.80;99.90
24049;DHT22;12250;50.956;4.746;2022-12-24T09:41:00;11.90;99.90
24049;DHT22;12250;50.956;4.746;2022-12-24T09:43:30;12.00;99.90
24049;DHT22;12250;50.956;4.746;2022-12-24T09:46:24;12.00;99.90
24049;DHT22;12250;50.956;4.746;2022-12-24T09:48:55;12.00;99.90
24049;DHT22;12250;50.956;4.746;2022-12-24T09:54:08;12.20;99.90
24049;DHT22;12250;50.956;4.746;2022-12-24T09:56:46;12.20;99.90
24049;DHT22;12250;50.956;4.746;2022-12-24T09:59:17;12.30;99.90
24049;DHT22;12250;50.956;4.746;2022-12-24T10:01:44;12.30;99.90
24049;DHT22;12250;50.956;4.746;2022-12-24T10:04:15;12.30;99.90
24049;DHT22;12250;50.956;4.746;2022-12-24T10:07:19;12.40;99.90
24049;DHT22;12250;50.956;4.746;2022-12-24T10:10:10;12.50;99.90
24049;DHT22;12250;50.956;4.746;2022-12-24T10:23:32;12.70;99.90
24049;DHT22;12250;50.956;4.746;2022-12-24T10:26:13;12.70;99.90
24049;DHT22;12250;50.956;4.746;2022-12-24T10:31:06;12.80;99.90
24049;DHT22;12250;50.956;4.746;2022-12-24T10:33:44;13.00;99.90
24049;DHT22;12250;50.956;4.746;2022-12-24T10:36:18;13.10;99.90
24049;DHT22;12250;50.956;4.746;2022-12-24T10:38:45;13.40;99.90
24049;DHT22;12250;50.956;4.746;2022-12-24T10:41:12;13.60;99.90
24049;DHT22;12250;50.956;4.746;2022-12-24T10:43:39;13.80;99.90
24049;DHT22;12250;50.956;4.746;2022-12-24T10:46:34;13.90;99.90
24049;DHT22;12250;50.956;4.746;2022-12-24T10:49:06;13.90;99.90
24049;DHT22;12250;50.956;4.746;2022-12-24T10:51:36;13.80;99.90
24049;DHT22;12250;50.956;4.746;2022-12-24T10:56:43;13.70;99.90
24049;DHT22;12250;50.956;4.746;2022-12-24T11:01:52;13.60;99.90
24049;DHT22;12250;50.956;4.746;2022-12-24T11:04:23;13.50;99.90
24049;DHT22;12250;50.956;4.746;2022-12-24T11:09:26;13.70;99.90
24049;DHT22;12250;50.956;4.746;2022-12-24T11:11:54;13.80;99.90
24049;DHT22;12250;50.956;4.746;2022-12-24T11:14:20;13.70;99.90
24049;DHT22;12250;50.956;4.746;2022-12-24T11:16:54;13.70;99.90
24049;DHT22;12250;50.956;4.746;2022-12-24T11:19:30;13.60;99.90
24049;DHT22;12250;50.956;4.746;2022-12-24T11:22:02;13.50;99.90
24049;DHT22;12250;50.956;4.746;2022-12-24T11:24:37;13.50;99.90
24049;DHT22;12250;50.956;4.746;2022-12-24T11:30:30;13.50;99.90
24049;DHT22;12250;50.956;4.746;2022-12-24T11:35:32;13.50;99.90
24049;DHT22;12250;50.956;4.746;2022-12-24T11:40:43;13.60;99.90
24049;DHT22;12250;50.956;4.746;2022-12-24T11:43:18;13.50;99.90
24049;DHT22;12250;50.956;4.746;2022-12-24T11:45:53;13.50;99.90
24049;DHT22;12250;50.956;4.746;2022-12-24T11:48:32;13.70;99.90
24049;DHT22;12250;50.956;4.746;2022-12-24T11:51:01;13.70;99.90
24049;DHT22;12250;50.956;4.746;2022-12-24T11:53:40;13.90;99.90
24049;DHT22;12250;50.956;4.746;2022-12-24T11:58:59;14.30;99.90
24049;DHT22;12250;50.956;4.746;2022-12-24T12:01:47;14.50;99.90
24049;DHT22;12250;50.956;4.746;2022-12-24T12:04:36;14.60;99.90
24049;DHT22;12250;50.956;4.746;2022-12-24T12:07:14;14.90;99.90
24049;DHT22;12250;50.956;4.746;2022-12-24T12:09:46;15.10;99.90
24049;DHT22;12250;50.956;4.746;2022-12-24T12:12:39;15.10;99.90
24049;DHT22;12250;50.956;4.746;2022-12-24T12:15:22;15.00;99.90
24049;DHT22;12250;50.956;4.746;2022-12-24T12:26:13;14.70;99.90
24049;DHT22;12250;50.956;4.746;2022-12-24T12:28:56;14.40;99.90
24049;DHT22;12250;50.956;4.746;2022-12-24T12:31:26;14.10;99.90
24049;DHT22;12250;50.956;4.746;2022-12-24T12:37:06;14.20;99.90
24049;DHT22;12250;50.956;4.746;2022-12-24T12:39:34;14.10;99.90
24049;DHT22;12250;50.956;4.746;2022-12-24T12:42:15;14.10;99.90
24049;DHT22;12250;50.956;4.746;2022-12-24T12:47:58;14.10;99.90
24049;DHT22;12250;50.956;4.746;2022-12-24T12:50:35;14.10;99.90
24049;DHT22;12250;50.956;4.746;2022-12-24T12:53:30;14.20;99.90
24049;DHT22;12250;50.956;4.746;2022-12-24T12:56:27;14.30;99.90
24049;DHT22;12250;50.956;4.746;2022-12-24T12:59:14;14.40;99.90
24049;DHT22;12250;50.956;4.746;2022-12-24T13:20:28;14.20;99.90
24049;DHT22;12250;50.956;4.746;2022-12-24T13:22:57;14.10;99.90
24049;DHT22;12250;50.956;4.746;2022-12-24T13:25:43;13.90;99.90
24049;DHT22;12250;50.956;4.746;2022-12-24T13:30:51;13.70;99.90
24049;DHT22;12250;50.956;4.746;2022-12-24T13:36:03;13.80;99.90
24049;DHT22;12250;50.956;4.746;2022-12-24T13:38:55;14.00;99.90
24049;DHT22;12250;50.956;4.746;2022-12-24T13:47:01;14.10;99.90
24049;DHT22;12250;50.956;4.746;2022-12-24T13:49:35;14.20;99.90
24049;DHT22;12250;50.956;4.746;2022-12-24T13:54:41;14.40;99.90
24049;DHT22;12250;50.956;4.746;2022-12-24T13:57:39;14.40;99.90
24049;DHT22;12250;50.956;4.746;2022-12-24T14:00:23;14.30;99.90
24049;DHT22;12250;50.956;4.746;2022-12-24T14:03:00;14.10;99.90
24049;DHT22;12250;50.956;4.746;2022-12-24T14:05:37;13.80;99.90
24049;DHT22;12250;50.956;4.746;2022-12-24T14:08:07;13.60;99.90
24049;DHT22;12250;50.956;4.746;2022-12-24T14:10:44;13.40;99.90
24049;DHT22;12250;50.956;4.746;2022-12-24T14:16:16;13.30;99.90
24049;DHT22;12250;50.956;4.746;2022-12-24T14:18:47;13.30;99.90
24049;DHT22;12250;50.956;4.746;2022-12-24T14:21:22;13.20;99.90
24049;DHT22;12250;50.956;4.746;2022-12-24T14:23:57;13.30;99.90
24049;DHT22;12250;50.956;4.746;2022-12-24T14:26:29;13.20;99.90
24049;DHT22;12250;50.956;4.746;2022-12-24T14:29:14;13.20;99.90
24049;DHT22;12250;50.956;4.746;2022-12-24T14:31:54;13.30;99.90
24049;DHT22;12250;50.956;4.746;2022-12-24T14:34:20;13.10;99.90
24049;DHT22;12250;50.956;4.746;2022-12-24T14:36:48;13.00;99.90
24049;DHT22;12250;50.956;4.746;2022-12-24T14:39:36;13.00;99.90
24049;DHT22;12250;50.956;4.746;2022-12-24T14:43:23;12.90;99.90
24049;DHT22;12250;50.956;4.746;2022-12-24T14:45:36;12.80;99.90
24049;DHT22;12250;50.956;4.746;2022-12-24T14:51:02;12.50;99.90
24049;DHT22;12250;50.956;4.746;2022-12-24T14:54:37;12.40;99.90
24049;DHT22;12250;50.956;4.746;2022-12-24T14:56:31;12.30;99.90
24049;DHT22;12250;50.956;4.746;2022-12-24T14:58:57;12.30;99.90
24049;DHT22;12250;50.956;4.746;2022-12-24T15:01:31;12.40;99.90
24049;DHT22;12250;50.956;4.746;2022-12-24T15:06:56;12.40;99.90
24049;DHT22;12250;50.956;4.746;2022-12-24T15:09:24;12.40;99.90
24049;DHT22;12250;50.956;4.746;2022-12-24T15:11:55;12.30;99.90
24049;DHT22;12250;50.956;4.746;2022-12-24T15:14:24;12.20;99.90
24049;DHT22;12250;50.956;4.746;2022-12-24T15:16:56;12.20;99.90
24049;DHT22;12250;50.956;4.746;2022-12-24T15:19:26;12.10;99.90
24049;DHT22;12250;50.956;4.746;2022-12-24T15:21:53;12.10;99.90
24049;DHT22;12250;50.956;4.746;2022-12-24T15:24:42;12.10;99.90
24049;DHT22;12250;50.956;4.746;2022-12-24T15:27:20;12.10;99.90
24049;DHT22;12250;50.956;4.746;2022-12-24T15:29:49;12.10;99.90
24049;DHT22;12250;50.956;4.746;2022-12-24T15:32:17;12.10;99.90
24049;DHT22;12250;50.956;4.746;2022-12-24T15:34:45;12.00;99.90
24049;DHT22;12250;50.956;4.746;2022-12-24T15:39:38;11.80;99.90
24049;DHT22;12250;50.956;4.746;2022-12-24T15:42:05;11.60;99.90
24049;DHT22;12250;50.956;4.746;2022-12-24T15:45:33;11.40;99.90
24049;DHT22;12250;50.956;4.746;2022-12-24T15:47:38;11.20;99.90
24049;DHT22;12250;50.956;4.746;2022-12-24T15:52:38;11.00;99.90
24049;DHT22;12250;50.956;4.746;2022-12-24T15:55:22;10.80;99.90
24049;DHT22;12250;50.956;4.746;2022-12-24T15:57:48;10.70;99.90
24049;DHT22;12250;50.956;4.746;2022-12-24T16:00:25;10.60;99.90
24049;DHT22;12250;50.956;4.746;2022-12-24T16:03:09;10.50;99.90
24049;DHT22;12250;50.956;4.746;2022-12-24T16:05:37;10.50;99.90
24049;DHT22;12250;50.956;4.746;2022-12-24T16:08:21;10.40;99.90
24049;DHT22;12250;50.956;4.746;2022-12-24T16:11:06;10.40;99.90
24049;DHT22;12250;50.956;4.746;2022-12-24T16:13:35;10.30;99.90
24049;DHT22;12250;50.956;4.746;2022-12-24T16:16:06;10.30;99.90
24049;DHT22;12250;50.956;4.746;2022-12-24T16:21:48;10.20;99.90
24049;DHT22;12250;50.956;4.746;2022-12-24T16:24:20;10.20;99.90
24049;DHT22;12250;50.956;4.746;2022-12-24T16:26:46;10.10;99.90
24049;DHT22;12250;50.956;4.746;2022-12-24T16:29:15;10.20;99.90
24049;DHT22;12250;50.956;4.746;2022-12-24T16:31:48;10.20;99.90
24049;DHT22;12250;50.956;4.746;2022-12-24T16:34:14;10.30;99.90
24049;DHT22;12250;50.956;4.746;2022-12-24T16:36:45;10.30;99.90
24049;DHT22;12250;50.956;4.746;2022-12-24T16:39:18;10.30;99.90
24049;DHT22;12250;50.956;4.746;2022-12-24T16:41:50;10.40;99.90
24049;DHT22;12250;50.956;4.746;2022-12-24T16:44:43;10.40;99.90
24049;DHT22;12250;50.956;4.746;2022-12-24T16:47:12;10.30;99.90
24049;DHT22;12250;50.956;4.746;2022-12-24T16:49:39;10.30;99.90
24049;DHT22;12250;50.956;4.746;2022-12-24T16:52:05;10.30;99.90
24049;DHT22;12250;50.956;4.746;2022-12-24T16:54:31;10.20;99.90
24049;DHT22;12250;50.956;4.746;2022-12-24T16:56:57;10.20;99.90
24049;DHT22;12250;50.956;4.746;2022-12-24T16:59:23;10.20;99.90
24049;DHT22;12250;50.956;4.746;2022-12-24T17:01:49;10.20;99.90
24049;DHT22;12250;50.956;4.746;2022-12-24T17:04:16;10.20;99.90
24049;DHT22;12250;50.956;4.746;2022-12-24T17:06:43;10.20;99.90
24049;DHT22;12250;50.956;4.746;2022-12-24T17:09:09;10.10;99.90
24049;DHT22;12250;50.956;4.746;2022-12-24T17:11:35;10.00;99.90
24049;DHT22;12250;50.956;4.746;2022-12-24T17:14:01;10.00;99.90
24049;DHT22;12250;50.956;4.746;2022-12-24T17:16:27;9.90;99.90
24049;DHT22;12250;50.956;4.746;2022-12-24T17:18:53;9.90;99.90
24049;DHT22;12250;50.956;4.746;2022-12-24T17:21:19;9.80;99.90
24049;DHT22;12250;50.956;4.746;2022-12-24T17:23:45;9.70;99.90
24049;DHT22;12250;50.956;4.746;2022-12-24T17:26:11;9.70;99.90
24049;DHT22;12250;50.956;4.746;2022-12-24T17:28:37;9.60;99.90
24049;DHT22;12250;50.956;4.746;2022-12-24T17:31:12;9.50;99.90
24049;DHT22;12250;50.956;4.746;2022-12-24T17:33:38;9.40;99.90
24049;DHT22;12250;50.956;4.746;2022-12-24T17:36:04;9.40;99.90
24049;DHT22;12250;50.956;4.746;2022-12-24T17:38:29;9.40;99.90
24049;DHT22;12250;50.956;4.746;2022-12-24T17:41:06;9.30;99.90
24049;DHT22;12250;50.956;4.746;2022-12-24T17:43:33;9.30;99.90
24049;DHT22;12250;50.956;4.746;2022-12-24T17:46:05;9.30;99.90
24049;DHT22;12250;50.956;4.746;2022-12-24T17:48:31;9.20;99.90
24049;DHT22;12250;50.956;4.746;2022-12-24T17:50:57;9.20;99.90
24049;DHT22;12250;50.956;4.746;2022-12-24T17:53:27;9.30;99.90
24049;DHT22;12250;50.956;4.746;2022-12-24T17:55:52;9.30;99.90